createdAt,value
2023-02-04T00:00:30.373Z,100133.89
2023-02-04T00:03:18.860Z,100139.28
2023-02-04T00:05:47.157Z,100135.04
2023-02-04T00:08:15.511Z,100140.88
2023-02-04T00:10:43.933Z,100141.19
2023-02-04T00:13:12.262Z,100146.84
2023-02-04T00:15:40.521Z,100155.11
2023-02-04T00:18:08.910Z,100161.20
2023-02-04T00:20:37.204Z,100162.48
2023-02-04T00:23:05.505Z,100165.25
2023-02-04T00:25:33.767Z,100172.65
2023-02-04T00:28:03.439Z,100174.55
2023-02-04T00:30:33.309Z,100181.39
2023-02-04T00:33:00.775Z,100197.70
2023-02-04T00:35:28.296Z,100203.75
2023-02-04T00:37:56.917Z,100210.66
2023-02-04T00:40:27.345Z,100221.00
2023-02-04T00:42:55.527Z,100233.23
2023-02-04T00:45:23.794Z,100238.39
2023-02-04T00:47:52.156Z,100247.52
2023-02-04T00:50:20.627Z,100255.79
2023-02-04T00:52:48.855Z,100252.77
2023-02-04T00:55:17.582Z,100261.35
2023-02-04T00:57:46.983Z,100267.02
2023-02-04T01:00:16.970Z,100275.77
2023-02-04T01:02:45.682Z,100283.15
2023-02-04T01:05:15.057Z,100285.40
2023-02-04T01:07:43.526Z,100293.69
2023-02-04T01:10:12.353Z,100299.70
2023-02-04T01:12:39.833Z,100306.94
2023-02-04T01:15:09.932Z,100314.34
2023-02-04T01:17:38.322Z,100322.09
2023-02-04T01:20:08.055Z,100329.67
2023-02-04T01:22:36.248Z,100338.11
2023-02-04T01:25:05.489Z,100348.08
2023-02-04T01:27:44.838Z,100352.35
2023-02-04T01:30:14.850Z,100358.86
2023-02-04T01:32:43.092Z,100360.23
2023-02-04T01:35:11.605Z,100375.36
2023-02-04T01:37:40.101Z,100387.20
2023-02-04T01:40:11.134Z,100396.17
2023-02-04T01:42:39.525Z,100401.65
2023-02-04T01:45:10.597Z,100408.86
2023-02-04T01:47:39.289Z,100420.22
2023-02-04T01:50:10.982Z,100422.45
2023-02-04T01:52:39.842Z,100434.33
2023-02-04T01:55:13.974Z,100450.84
2023-02-04T01:57:42.650Z,100462.17
2023-02-04T02:00:19.795Z,100470.77
2023-02-04T02:02:51.098Z,100478.83
2023-02-04T02:05:22.084Z,100488.30
2023-02-04T02:07:52.801Z,100493.11
2023-02-04T02:10:22.989Z,100499.67
2023-02-04T02:12:51.535Z,100505.52
2023-02-04T02:15:20.087Z,100505.69
2023-02-04T02:17:48.502Z,100511.88
2023-02-04T02:20:18.950Z,100519.27
2023-02-04T02:22:53.885Z,100524.44
2023-02-04T02:25:21.277Z,100535.10
2023-02-04T02:27:49.777Z,100543.88
2023-02-04T02:30:19.255Z,100549.58
2023-02-04T02:32:48.061Z,100571.88
2023-02-04T02:35:15.459Z,100580.30
2023-02-04T02:37:43.749Z,100592.54
2023-02-04T02:40:14.474Z,100603.20
2023-02-04T02:42:43.500Z,100613.36
2023-02-04T02:45:24.071Z,100616.27
2023-02-04T02:47:52.445Z,100633.13
2023-02-04T02:50:26.874Z,100639.84
2023-02-04T02:52:56.175Z,100651.89
2023-02-04T02:55:26.726Z,100662.89
2023-02-04T02:57:55.905Z,100670.63
2023-02-04T03:00:25.823Z,100679.73
2023-02-04T03:02:59.297Z,100689.54
2023-02-04T03:05:28.063Z,100702.78
2023-02-04T03:07:56.315Z,100711.38
2023-02-04T03:10:24.572Z,100716.89
2023-02-04T03:12:52.759Z,100729.44
2023-02-04T03:15:21.074Z,100728.59
2023-02-04T03:17:51.632Z,100738.39
2023-02-04T03:20:20.140Z,100745.78
2023-02-04T03:22:48.398Z,100758.85
2023-02-04T03:25:16.901Z,100770.72
2023-02-04T03:27:45.310Z,100776.04
2023-02-04T03:30:13.780Z,100782.75
2023-02-04T03:32:42.065Z,100787.23
2023-02-04T03:35:10.372Z,100798.05
2023-02-04T03:37:39.009Z,100798.75
2023-02-04T03:40:08.777Z,100804.76
2023-02-04T03:42:36.993Z,100818.67
2023-02-04T03:45:06.326Z,100825.91
2023-02-04T03:47:34.660Z,100842.08
2023-02-04T03:50:03.001Z,100842.59
2023-02-04T03:52:31.185Z,100865.47
2023-02-04T03:54:59.329Z,100873.88
2023-02-04T03:57:27.579Z,100874.39
2023-02-04T03:59:55.780Z,100882.13
2023-02-04T04:02:24.126Z,100889.36
2023-02-04T04:04:52.421Z,100900.53
2023-02-04T04:07:20.569Z,100909.82
2023-02-04T04:09:48.780Z,100919.45
2023-02-04T04:12:16.993Z,100919.95
2023-02-04T04:14:45.170Z,100928.38
2023-02-04T04:17:13.584Z,100939.55
2023-02-04T04:19:43.622Z,100948.81
2023-02-04T04:22:11.944Z,100958.10
2023-02-04T04:24:40.132Z,100966.51
2023-02-04T04:27:08.318Z,100977.33
2023-02-04T04:29:36.475Z,100984.34
2023-02-04T04:32:05.053Z,100992.57
2023-02-04T04:34:33.263Z,100999.96
2023-02-04T04:37:01.529Z,101009.23
2023-02-04T04:39:29.776Z,101023.33
2023-02-04T04:41:57.997Z,101031.56
2023-02-04T04:44:26.179Z,101042.73
2023-02-04T04:46:54.475Z,101048.55
2023-02-04T04:49:22.697Z,101055.25
2023-02-04T04:51:50.974Z,101057.83
2023-02-04T04:54:19.250Z,101068.14
2023-02-04T04:56:47.419Z,101080.00
2023-02-04T04:59:15.761Z,101087.06
2023-02-04T05:01:44.001Z,101092.39
2023-02-04T05:04:12.287Z,101091.70
2023-02-04T05:06:40.455Z,101098.93
2023-02-04T05:09:09.227Z,101106.16
2023-02-04T05:11:36.630Z,101114.80
2023-02-04T05:14:05.173Z,101116.69
2023-02-04T05:16:33.495Z,101126.14
2023-02-04T05:19:01.785Z,101136.08
2023-02-04T05:21:30.003Z,101139.19
2023-02-04T05:23:58.208Z,101141.77
2023-02-04T05:26:30.436Z,101151.73
2023-02-04T05:29:00.016Z,101159.13
2023-02-04T05:31:28.440Z,101169.46
2023-02-04T05:33:56.684Z,101178.58
2023-02-04T05:36:24.936Z,101181.33
2023-02-04T05:38:53.774Z,101191.48
2023-02-04T05:41:21.137Z,101197.70
2023-02-04T05:43:48.482Z,101202.02
2023-02-04T05:46:16.731Z,101209.08
2023-02-04T05:48:44.938Z,101220.75
2023-02-04T05:51:13.115Z,101229.50
2023-02-04T05:53:41.292Z,101238.45
2023-02-04T05:56:09.502Z,101247.92
2023-02-04T05:58:39.917Z,101257.05
2023-02-04T06:01:08.252Z,101271.35
2023-02-04T06:03:36.525Z,101274.27
2023-02-04T06:06:05.301Z,101279.61
2023-02-04T06:08:33.492Z,101290.77
2023-02-04T06:11:01.682Z,101299.90
2023-02-04T06:13:29.977Z,101314.37
2023-02-04T06:15:58.148Z,101321.92
2023-02-04T06:18:26.385Z,101326.22
2023-02-04T06:20:54.787Z,101329.83
2023-02-04T06:23:23.038Z,101341.52
2023-02-04T06:25:51.275Z,101339.39
2023-02-04T06:28:19.513Z,101354.35
2023-02-04T06:30:48.808Z,101359.72
2023-02-04T06:33:17.046Z,101365.94
2023-02-04T06:35:45.422Z,101373.37
2023-02-04T06:38:13.635Z,101379.39
2023-02-04T06:40:42.132Z,101382.30
2023-02-04T06:43:10.322Z,101397.04
2023-02-04T06:45:38.585Z,101407.13
2023-02-04T06:48:06.913Z,101407.81
2023-02-04T06:50:35.142Z,101412.98
2023-02-04T06:53:03.356Z,101423.13
2023-02-04T06:55:31.587Z,101430.67
2023-02-04T06:57:59.855Z,101436.83
2023-02-04T07:00:30.608Z,101445.05
2023-02-04T07:02:59.132Z,101444.85
2023-02-04T07:05:27.456Z,101455.52
2023-02-04T07:07:55.642Z,101459.56
2023-02-04T07:10:23.853Z,101470.67
2023-02-04T07:12:52.050Z,101481.61
2023-02-04T07:15:20.453Z,101487.23
2023-02-04T07:17:48.642Z,101496.65
2023-02-04T07:20:17.487Z,101503.53
2023-02-04T07:22:44.841Z,101508.49
2023-02-04T07:25:14.363Z,101517.73
2023-02-04T07:27:42.665Z,101528.03
2023-02-04T07:30:12.792Z,101540.92
2023-02-04T07:32:41.004Z,101538.77
2023-02-04T07:35:11.121Z,101546.36
2023-02-04T07:37:39.335Z,101554.30
2023-02-04T07:40:10.132Z,101560.69
2023-02-04T07:42:38.366Z,101565.32
2023-02-04T07:45:11.268Z,101568.79
2023-02-04T07:47:39.484Z,101578.29
2023-02-04T07:50:08.384Z,101583.80
2023-02-04T07:52:36.678Z,101588.27
2023-02-04T07:55:05.676Z,101575.79
2023-02-04T07:57:33.976Z,101590.17
2023-02-04T08:00:02.284Z,101590.30
2023-02-04T08:02:41.144Z,101596.02
2023-02-04T08:05:10.179Z,101597.09
2023-02-04T08:07:38.531Z,101584.04
2023-02-04T08:10:09.015Z,101605.47
2023-02-04T08:12:37.393Z,101611.66
2023-02-04T08:15:07.078Z,101613.73
2023-02-04T08:17:35.443Z,101620.30
2023-02-04T08:20:04.831Z,101618.33
2023-02-04T08:22:34.461Z,101619.06
2023-02-04T08:25:02.818Z,101618.58
2023-02-04T08:27:31.037Z,101622.18
2023-02-04T08:29:59.261Z,101630.56
2023-02-04T08:32:28.619Z,101639.85
2023-02-04T08:34:56.867Z,101653.83
2023-02-04T08:37:25.119Z,101652.16
2023-02-04T08:39:53.687Z,101661.45
2023-02-04T08:42:21.877Z,101667.66
2023-02-04T08:44:50.147Z,101672.49
2023-02-04T08:47:18.466Z,101667.52
2023-02-04T08:49:46.789Z,101667.27
2023-02-04T08:52:15.005Z,101674.80
2023-02-04T08:54:43.243Z,101674.70
2023-02-04T08:57:11.506Z,101674.60
2023-02-04T08:59:39.868Z,101682.89
2023-02-04T09:02:09.171Z,101686.34
2023-02-04T09:04:37.415Z,101694.90
2023-02-04T09:07:05.619Z,101702.59
2023-02-04T09:09:34.033Z,101701.73
2023-02-04T09:12:02.585Z,101710.48
2023-02-04T09:14:30.745Z,101710.32
2023-02-04T09:16:58.952Z,101717.54
2023-02-04T09:19:27.138Z,101724.56
2023-02-04T09:21:55.384Z,101730.61
2023-02-04T09:24:23.628Z,101731.86
2023-02-04T09:26:51.978Z,101731.03
2023-02-04T09:29:20.413Z,101729.17
2023-02-04T09:31:48.676Z,101727.29
2023-02-04T09:34:16.932Z,101715.42
2023-02-04T09:36:45.141Z,101706.72
2023-02-04T09:39:13.459Z,101705.27
2023-02-04T09:41:42.573Z,101716.04
2023-02-04T09:44:14.082Z,101721.27
2023-02-04T09:46:47.246Z,101729.45
2023-02-04T09:49:15.709Z,101725.88
2023-02-04T09:51:45.426Z,101729.85
2023-02-04T09:54:15.182Z,101735.05
2023-02-04T09:56:43.585Z,101734.94
2023-02-04T09:59:13.905Z,101736.51
2023-02-04T10:01:42.425Z,101737.88
2023-02-04T10:04:13.147Z,101740.34
2023-02-04T10:06:42.080Z,101743.84
2023-02-04T10:09:11.594Z,101745.94
2023-02-04T10:11:41.180Z,101756.98
2023-02-04T10:14:13.724Z,101759.38
2023-02-04T10:16:42.956Z,101762.33
2023-02-04T10:19:14.973Z,101765.17
2023-02-04T10:21:44.485Z,101764.09
2023-02-04T10:24:15.025Z,101763.52
2023-02-04T10:26:43.341Z,101758.33
2023-02-04T10:29:16.404Z,101761.48
2023-02-04T10:31:45.615Z,101762.55
2023-02-04T10:34:18.327Z,101763.94
2023-02-04T10:36:48.947Z,101758.90
2023-02-04T10:39:18.937Z,101763.86
2023-02-04T10:41:51.390Z,101775.31
2023-02-04T10:44:24.787Z,101780.22
2023-02-04T10:47:00.285Z,101780.98
2023-02-04T10:49:29.096Z,101785.35
2023-02-04T10:51:57.975Z,101794.91
2023-02-04T10:54:31.754Z,101795.33
2023-02-04T10:57:04.643Z,101799.08
2023-02-04T10:59:33.320Z,101804.50
2023-02-04T11:02:02.920Z,101807.99
2023-02-04T11:04:31.829Z,101811.88
2023-02-04T11:07:00.231Z,101814.23
2023-02-04T11:09:28.638Z,101819.21
2023-02-04T11:12:00.232Z,101820.80
2023-02-04T11:14:29.710Z,101824.33
2023-02-04T11:16:59.982Z,101823.86
2023-02-04T11:19:36.803Z,101819.38
2023-02-04T11:22:21.769Z,101821.04
2023-02-04T11:24:50.462Z,101822.92
2023-02-04T11:27:21.960Z,101822.91
2023-02-04T11:29:50.423Z,101824.77
2023-02-04T11:32:30.944Z,101824.38
2023-02-04T11:35:28.022Z,101827.09
2023-02-04T11:37:56.837Z,101826.42
2023-02-04T11:40:25.780Z,101828.90
2023-02-04T11:43:02.123Z,101830.89
2023-02-04T11:45:33.490Z,101830.13
2023-02-04T11:48:03.532Z,101837.08
2023-02-04T11:50:33.221Z,101833.47
2023-02-04T11:53:02.510Z,101839.52
2023-02-04T11:55:32.078Z,101840.04
2023-02-04T11:58:00.935Z,101836.61
2023-02-04T12:00:31.630Z,101835.28
2023-02-04T12:03:01.583Z,101837.41
2023-02-04T12:05:42.264Z,101837.75
2023-02-04T12:08:12.488Z,101843.61
2023-02-04T12:10:48.937Z,101848.41
2023-02-04T12:13:19.262Z,101845.86
2023-02-04T12:15:57.914Z,101841.92
2023-02-04T12:18:27.356Z,101846.71
2023-02-04T12:20:56.244Z,101848.36
2023-02-04T12:23:23.797Z,101852.24
2023-02-04T12:25:52.024Z,101853.38
2023-02-04T12:28:20.577Z,101854.16
2023-02-04T12:30:48.936Z,101853.43
2023-02-04T12:33:17.094Z,101862.85
2023-02-04T12:35:45.479Z,101857.11
2023-02-04T12:38:13.682Z,101858.98
2023-02-04T12:40:41.913Z,101858.70
2023-02-04T12:43:10.128Z,101857.25
2023-02-04T12:45:39.388Z,101858.04
2023-02-04T12:48:07.675Z,101856.38
2023-02-04T12:50:35.931Z,101857.60
2023-02-04T12:53:05.790Z,101867.96
2023-02-04T12:55:34.493Z,101868.16
2023-02-04T12:58:03.011Z,101875.44
2023-02-04T13:00:31.540Z,101876.63
2023-02-04T13:02:59.928Z,101887.52
2023-02-04T13:05:28.450Z,101884.08
2023-02-04T13:07:56.862Z,101885.62
2023-02-04T13:10:25.616Z,101890.83
2023-02-04T13:12:53.006Z,101895.02
2023-02-04T13:15:21.186Z,101898.15
2023-02-04T13:17:49.368Z,101908.80
2023-02-04T13:20:18.243Z,101909.26
2023-02-04T13:22:46.446Z,101918.12
2023-02-04T13:25:14.787Z,101923.84
2023-02-04T13:27:43.029Z,101922.84
2023-02-04T13:30:14.851Z,101923.94
2023-02-04T13:32:43.189Z,101926.42
2023-02-04T13:35:11.382Z,101927.85
2023-02-04T13:37:39.781Z,101925.90
2023-02-04T13:40:10.689Z,101935.87
2023-02-04T13:42:39.013Z,101937.23
2023-02-04T13:45:11.794Z,101943.55
2023-02-04T13:47:39.974Z,101951.95
2023-02-04T13:50:09.270Z,101953.77
2023-02-04T13:52:37.456Z,101962.14
2023-02-04T13:55:06.635Z,101962.29
2023-02-04T13:57:36.620Z,101957.87
2023-02-04T14:00:06.674Z,101963.86
2023-02-04T14:02:40.724Z,101967.03
2023-02-04T14:05:09.163Z,101967.70
2023-02-04T14:07:37.348Z,101976.00
2023-02-04T14:10:06.856Z,101972.36
2023-02-04T14:12:35.092Z,101975.20
2023-02-04T14:15:03.601Z,101981.48
2023-02-04T14:17:31.775Z,101985.38
2023-02-04T14:19:59.965Z,101980.71
2023-02-04T14:22:28.145Z,101981.73
2023-02-04T14:24:56.415Z,101981.70
2023-02-04T14:27:25.161Z,101981.83
2023-02-04T14:29:52.505Z,101981.94
2023-02-04T14:32:20.966Z,101979.49
2023-02-04T14:34:49.286Z,101981.86
2023-02-04T14:37:17.459Z,101983.88
2023-02-04T14:39:45.670Z,101981.80
2023-02-04T14:42:13.948Z,101988.88
2023-02-04T14:44:42.329Z,101985.21
2023-02-04T14:47:10.598Z,101992.40
2023-02-04T14:49:38.766Z,101998.35
2023-02-04T14:52:06.931Z,101997.06
2023-02-04T14:54:35.191Z,102001.91
2023-02-04T14:57:03.928Z,102007.80
2023-02-04T14:59:32.110Z,102006.34
2023-02-04T15:02:00.355Z,101996.10
2023-02-04T15:04:28.780Z,102007.24
2023-02-04T15:06:57.315Z,102010.39
2023-02-04T15:09:25.633Z,102014.23
2023-02-04T15:11:54.064Z,102019.06
2023-02-04T15:14:22.646Z,102019.10
2023-02-04T15:16:50.947Z,102023.59
2023-02-04T15:19:19.343Z,102026.23
2023-02-04T15:21:47.607Z,102027.52
2023-02-04T15:24:15.946Z,102029.15
2023-02-04T15:26:44.165Z,102018.70
2023-02-04T15:29:12.531Z,102037.17
2023-02-04T15:31:40.820Z,102036.90
2023-02-04T15:34:09.092Z,102039.20
2023-02-04T15:36:37.275Z,102043.05
2023-02-04T15:39:04.700Z,102043.86
2023-02-04T15:41:32.929Z,102049.98
2023-02-04T15:44:01.364Z,102052.88
2023-02-04T15:46:29.678Z,102062.16
2023-02-04T15:48:58.286Z,102061.80
2023-02-04T15:51:26.589Z,102062.27
2023-02-04T15:53:57.248Z,102063.46
2023-02-04T15:56:25.618Z,102066.50
2023-02-04T15:58:55.730Z,102069.45
2023-02-04T16:01:23.986Z,102068.53
2023-02-04T16:03:55.705Z,102074.69
2023-02-04T16:06:24.346Z,102076.89
2023-02-04T16:08:52.841Z,102082.11
2023-02-04T16:11:21.070Z,102091.14
2023-02-04T16:13:49.298Z,102093.55
2023-02-04T16:16:17.561Z,102095.27
2023-02-04T16:18:45.826Z,102100.08
2023-02-04T16:21:14.043Z,102101.45
2023-02-04T16:23:43.528Z,102104.02
2023-02-04T16:26:11.884Z,102108.48
2023-02-04T16:28:40.353Z,102112.56
2023-02-04T16:31:09.512Z,102108.57
2023-02-04T16:33:37.819Z,102117.00
2023-02-04T16:36:11.016Z,102118.70
2023-02-04T16:38:39.888Z,102118.83
2023-02-04T16:41:08.285Z,102120.58
2023-02-04T16:43:36.767Z,102123.38
2023-02-04T16:46:05.488Z,102126.30
2023-02-04T16:48:35.481Z,102127.16
2023-02-04T16:51:04.200Z,102131.96
2023-02-04T16:53:32.475Z,102130.35
2023-02-04T16:56:01.579Z,102136.69
2023-02-04T16:58:29.804Z,102139.55
2023-02-04T17:00:59.159Z,102149.16
2023-02-04T17:03:28.693Z,102152.73
2023-02-04T17:05:56.921Z,102158.34
2023-02-04T17:08:25.380Z,102160.50
2023-02-04T17:11:11.814Z,102161.05
2023-02-04T17:13:40.098Z,102165.33
2023-02-04T17:16:09.985Z,102166.98
2023-02-04T17:18:38.281Z,102175.86
2023-02-04T17:21:06.752Z,102176.97
2023-02-04T17:23:35.009Z,102190.45
2023-02-04T17:26:03.432Z,102192.58
2023-02-04T17:28:31.667Z,102193.67
2023-02-04T17:30:59.982Z,102198.19
2023-02-04T17:33:28.340Z,102205.29
2023-02-04T17:35:56.552Z,102195.71
2023-02-04T17:38:27.233Z,102212.83
2023-02-04T17:40:56.606Z,102202.38
2023-02-04T17:43:25.852Z,102216.95
2023-02-04T17:45:54.225Z,102219.64
2023-02-04T17:48:22.429Z,102223.89
2023-02-04T17:50:52.547Z,102225.02
2023-02-04T17:53:20.759Z,102224.96
2023-02-04T17:55:49.070Z,102224.90
2023-02-04T17:58:20.747Z,102228.92
2023-02-04T18:00:49.950Z,102229.55
2023-02-04T18:03:20.218Z,102229.61
2023-02-04T18:05:50.314Z,102231.80
2023-02-04T18:08:21.366Z,102227.81
2023-02-04T18:10:50.512Z,102229.46
2023-02-04T18:13:20.195Z,102230.59
2023-02-04T18:15:51.058Z,102234.14
2023-02-04T18:18:22.324Z,102240.23
2023-02-04T18:20:59.045Z,102236.52
2023-02-04T18:23:29.073Z,102244.17
2023-02-04T18:26:00.650Z,102242.67
2023-02-04T18:28:29.011Z,102248.59
2023-02-04T18:30:59.150Z,102252.65
2023-02-04T18:33:27.688Z,102255.19
2023-02-04T18:35:59.590Z,102258.91
2023-02-04T18:38:28.978Z,102259.05
2023-02-04T18:41:02.908Z,102262.97
2023-02-04T18:43:37.516Z,102263.55
2023-02-04T18:46:21.348Z,102266.41
2023-02-04T18:49:08.044Z,102266.16
2023-02-04T18:51:39.599Z,102271.16
2023-02-04T18:54:29.402Z,102275.30
2023-02-04T18:57:16.201Z,102277.27
2023-02-04T18:59:44.537Z,102278.36
2023-02-04T19:02:29.467Z,102279.61
2023-02-04T19:05:12.822Z,102282.48
2023-02-04T19:07:41.742Z,102287.53
2023-02-04T19:10:26.264Z,102291.27
2023-02-04T19:12:55.178Z,102291.44
2023-02-04T19:15:30.417Z,102296.50
2023-02-04T19:18:04.117Z,102299.33
2023-02-04T19:20:32.372Z,102303.42
2023-02-04T19:23:00.864Z,102302.52
2023-02-04T19:25:32.610Z,102310.45
2023-02-04T19:28:03.000Z,102310.17
2023-02-04T19:30:45.007Z,102315.83
2023-02-04T19:33:16.741Z,102317.49
2023-02-04T19:35:45.967Z,102324.02
2023-02-04T19:38:32.886Z,102323.81
2023-02-04T19:41:01.196Z,102324.28
2023-02-04T19:43:35.626Z,102324.75
2023-02-04T19:46:17.345Z,102325.95
2023-02-04T19:48:46.791Z,102333.28
2023-02-04T19:51:27.642Z,102325.65
2023-02-04T19:54:02.727Z,102327.83
2023-02-04T19:56:35.479Z,102336.14
2023-02-04T19:59:21.352Z,102333.12
2023-02-04T20:01:49.856Z,102336.85
2023-02-04T20:04:20.080Z,102341.24
2023-02-04T20:06:48.890Z,102344.09
2023-02-04T20:09:18.281Z,102343.61
2023-02-04T20:12:05.131Z,102346.33
2023-02-04T20:14:47.099Z,102348.67
2023-02-04T20:17:36.876Z,102344.58
2023-02-04T20:20:20.876Z,102348.84
2023-02-04T20:22:53.128Z,102348.02
2023-02-04T20:25:35.726Z,102352.41
2023-02-04T20:28:14.183Z,102354.34
2023-02-04T20:30:42.607Z,102356.35
2023-02-04T20:33:27.378Z,102360.44
2023-02-04T20:36:22.439Z,102365.82
2023-02-04T20:38:50.611Z,102363.65
2023-02-04T20:41:20.008Z,102361.66
2023-02-04T20:43:50.041Z,102363.02
2023-02-04T20:46:21.121Z,102367.70
2023-02-04T20:48:49.873Z,102370.02
2023-02-04T20:51:23.139Z,102371.44
2023-02-04T20:53:52.538Z,102375.05
2023-02-04T20:56:26.080Z,102381.36
2023-02-04T20:58:57.076Z,102389.19
2023-02-04T21:01:33.127Z,102393.58
2023-02-04T21:04:16.690Z,102401.52
2023-02-04T21:06:45.633Z,102404.96
2023-02-04T21:09:15.932Z,102415.04
2023-02-04T21:11:44.123Z,102417.30
2023-02-04T21:14:12.364Z,102413.96
2023-02-04T21:16:40.605Z,102418.72
2023-02-04T21:19:09.440Z,102420.73
2023-02-04T21:21:37.736Z,102423.95
2023-02-04T21:24:08.257Z,102426.30
2023-02-04T21:26:36.530Z,102430.02
2023-02-04T21:29:04.991Z,102427.27
2023-02-04T21:31:33.595Z,102430.19
2023-02-04T21:34:02.171Z,102434.92
2023-02-04T21:36:30.421Z,102435.84
2023-02-04T21:38:58.701Z,102443.55
2023-02-04T21:41:26.993Z,102443.55
2023-02-04T21:43:55.216Z,102445.59
2023-02-04T21:46:23.607Z,102451.73
2023-02-04T21:48:52.104Z,102450.64
2023-02-04T21:51:20.423Z,102456.02
2023-02-04T21:53:48.790Z,102456.73
2023-02-04T21:56:17.045Z,102458.50
2023-02-04T21:58:45.354Z,102462.36
2023-02-04T22:01:13.657Z,102464.52
2023-02-04T22:03:41.947Z,102466.34
2023-02-04T22:06:10.401Z,102473.42
2023-02-04T22:08:38.637Z,102461.84
2023-02-04T22:11:06.943Z,102482.25
2023-02-04T22:13:53.318Z,102481.15
2023-02-04T22:16:21.614Z,102482.38
2023-02-04T22:18:49.871Z,102485.86
2023-02-04T22:21:18.283Z,102483.16
2023-02-04T22:23:46.695Z,102487.86
2023-02-04T22:26:14.925Z,102488.91
2023-02-04T22:28:43.303Z,102496.36
2023-02-04T22:31:12.185Z,102499.39
2023-02-04T22:33:39.650Z,102503.63
2023-02-04T22:36:07.778Z,102503.99
2023-02-04T22:38:36.086Z,102508.46
2023-02-04T22:41:04.867Z,102511.73
2023-02-04T22:43:33.360Z,102514.30
2023-02-04T22:46:01.774Z,102519.86
2023-02-04T22:48:30.047Z,102523.22
2023-02-04T22:51:00.833Z,102524.86
2023-02-04T22:53:29.011Z,102523.77
2023-02-04T22:55:57.266Z,102525.02
2023-02-04T22:58:25.496Z,102532.67
2023-02-04T23:00:53.986Z,102540.94
2023-02-04T23:03:22.343Z,102546.34
2023-02-04T23:05:50.806Z,102555.52
2023-02-04T23:08:19.283Z,102557.77
2023-02-04T23:10:47.581Z,102557.25
2023-02-04T23:13:16.276Z,102558.58
2023-02-04T23:15:44.606Z,102559.23
2023-02-04T23:18:12.858Z,102558.85
2023-02-04T23:20:41.672Z,102557.61
2023-02-04T23:23:14.308Z,102558.95
2023-02-04T23:25:42.551Z,102559.73
2023-02-04T23:28:10.913Z,102564.05
2023-02-04T23:30:39.432Z,102562.99
2023-02-04T23:33:08.065Z,102566.66
2023-02-04T23:35:36.535Z,102564.17
2023-02-04T23:38:04.748Z,102564.10
2023-02-04T23:40:32.993Z,102565.66
2023-02-04T23:43:01.316Z,102563.73
2023-02-04T23:45:29.641Z,102568.91
2023-02-04T23:47:58.261Z,102565.42
2023-02-04T23:50:26.670Z,102571.48
2023-02-04T23:52:54.905Z,102570.94
2023-02-04T23:55:23.201Z,102572.77
2023-02-04T23:57:51.413Z,102577.63
